»·PEaware :: N832PW KRDD-KMFR

N832PW :: KRDD-KMFR

FLIGHT INFORMATION

Flight Status: Arrived
Operator: Privately registered:
United States
More flights under this callsign
Pilot: Peter S. (18668)
Aircraft: PIPER PA-28 CHEROKEE ARCHER
(PA28)
More flights by this aircraft type
Origin: KRDD Redding Mun
United States
Destination: KMFR Rogue Valley Intl-Medford
United States
More flights between these airports :: More routes between these airports
Route: +
File this flight plan on PilotEdge
Remarks:
Altitude:
(Current/Filed)
0ft
Speed:
(Current/Filed)
0kts
Departed: 22-Jun-18 05:42 PM
Arrived: 22-Jun-18 06:56 PM
Distance/Time
Traveled:
115nm/1:14
Distance/Time
To Go:
Arrived

Flight Plot

Page will automatically refresh every two minutes.

Flight plan parsing failed; only flown route is shown


Map Options




Map Legend


Flown Route
Filed Route
Departure Airport
Arrival Airport
Navaid (VOR, NDB)
Fix

Horizontal Profiles

Position Reports

Time Latitude Longitude Heading Altitude Ground
Speed
22-Jun-18 17:35 40.507978 -122.299380 57 505ft 0kts
22-Jun-18 17:36 40.507979 -122.299378 57 505ft 0kts
22-Jun-18 17:37 40.509305 -122.298658 359 505ft 16kts
22-Jun-18 17:38 40.511329 -122.298183 48 505ft 0kts
22-Jun-18 17:39 40.511332 -122.298179 48 505ft 0kts
22-Jun-18 17:40 40.511334 -122.298177 48 505ft 0kts
22-Jun-18 17:41 40.511494 -122.297744 53 505ft 10kts
22-Jun-18 17:42 40.502337 -122.285876 137 839ft 71kts
22-Jun-18 17:43 40.502227 -122.265367 42 1599ft 70kts
22-Jun-18 17:44 40.518686 -122.259141 330 2343ft 70kts
22-Jun-18 17:45 40.533364 -122.275126 316 3079ft 68kts
22-Jun-18 17:46 40.544474 -122.295350 304 3844ft 68kts
22-Jun-18 17:47 40.555469 -122.318472 308 4511ft 76kts
22-Jun-18 17:48 40.568955 -122.340066 311 5192ft 76kts
22-Jun-18 17:49 40.584325 -122.359016 329 5869ft 75kts
22-Jun-18 17:50 40.601909 -122.374576 315 6498ft 77kts
22-Jun-18 17:51 40.617915 -122.393482 322 7052ft 78kts
22-Jun-18 17:52 40.635047 -122.410084 323 7794ft 75kts
22-Jun-18 17:53 40.652989 -122.425552 326 8398ft 80kts
22-Jun-18 17:54 40.674929 -122.444726 324 8551ft 102kts
22-Jun-18 17:55 40.698143 -122.466759 325 8568ft 102kts
22-Jun-18 17:56 40.722038 -122.488370 325 8592ft 107kts
22-Jun-18 17:57 40.747838 -122.509342 338 8612ft 109kts
22-Jun-18 17:58 40.776689 -122.519849 342 8620ft 107kts
22-Jun-18 17:59 40.805500 -122.531259 340 8632ft 107kts
22-Jun-18 18:00 40.833591 -122.543468 339 8640ft 106kts
22-Jun-18 18:01 40.861737 -122.555419 339 8651ft 107kts
22-Jun-18 18:02 40.890585 -122.567579 339 8659ft 108kts
22-Jun-18 18:03 40.918950 -122.579681 339 8662ft 106kts
22-Jun-18 18:04 40.947199 -122.591624 339 8672ft 107kts
22-Jun-18 18:05 40.976075 -122.604033 339 8684ft 109kts
22-Jun-18 18:06 41.004826 -122.616350 339 8687ft 107kts
22-Jun-18 18:07 41.033103 -122.628348 339 8691ft 106kts
22-Jun-18 18:08 41.061214 -122.640366 339 8698ft 106kts
22-Jun-18 18:09 41.089394 -122.652407 339 8705ft 107kts
22-Jun-18 18:10 41.118083 -122.664633 339 8714ft 108kts
22-Jun-18 18:11 41.146622 -122.676779 339 8722ft 108kts
22-Jun-18 18:12 41.175582 -122.689157 339 8729ft 108kts
22-Jun-18 18:13 41.204307 -122.701525 339 8731ft 109kts
22-Jun-18 18:14 41.234675 -122.714445 340 8546ft 120kts
22-Jun-18 18:15 41.265842 -122.727848 339 8501ft 113kts
22-Jun-18 18:16 41.295466 -122.740550 340 8493ft 110kts
22-Jun-18 18:17 41.324709 -122.753027 339 8502ft 110kts
22-Jun-18 18:18 41.353699 -122.765625 339 8507ft 107kts
22-Jun-18 18:19 41.382128 -122.777853 338 8517ft 108kts
22-Jun-18 18:20 41.411352 -122.789741 341 8520ft 108kts
22-Jun-18 18:21 41.439859 -122.801094 340 8514ft 106kts
22-Jun-18 18:22 41.468879 -122.809360 348 8518ft 108kts
22-Jun-18 18:23 41.499480 -122.812793 354 8522ft 109kts
22-Jun-18 18:24 41.529654 -122.814382 352 8521ft 109kts
22-Jun-18 18:25 41.560133 -122.818229 350 8524ft 109kts
22-Jun-18 18:26 41.590246 -122.821718 353 8523ft 109kts
22-Jun-18 18:27 41.620886 -122.823927 353 8525ft 109kts
22-Jun-18 18:28 41.650740 -122.827257 351 8521ft 107kts
22-Jun-18 18:29 41.680393 -122.830281 352 8522ft 107kts
22-Jun-18 18:30 41.710323 -122.833412 351 8523ft 107kts
22-Jun-18 18:31 41.740210 -122.836624 352 8525ft 108kts
22-Jun-18 18:32 41.770617 -122.839464 352 8530ft 108kts
22-Jun-18 18:33 41.800648 -122.842619 352 8531ft 108kts
22-Jun-18 18:34 41.830616 -122.845628 352 8530ft 108kts
22-Jun-18 18:35 41.860658 -122.848855 352 8535ft 111kts
22-Jun-18 18:36 41.892053 -122.851838 352 8539ft 111kts
22-Jun-18 18:37 41.922512 -122.855035 351 8534ft 109kts
22-Jun-18 18:38 41.952983 -122.858113 352 8533ft 109kts
22-Jun-18 18:39 41.983100 -122.861253 352 8530ft 108kts
22-Jun-18 18:40 42.013373 -122.864410 352 8530ft 110kts
22-Jun-18 18:41 42.044400 -122.867564 352 8541ft 112kts
22-Jun-18 18:42 42.075689 -122.870833 352 8550ft 113kts
22-Jun-18 18:43 42.106849 -122.874000 351 8548ft 111kts
22-Jun-18 18:44 42.138017 -122.877241 352 8508ft 114kts
22-Jun-18 18:45 42.170417 -122.878363 357 8251ft 120kts
22-Jun-18 18:46 42.203757 -122.876552 358 7573ft 123kts
22-Jun-18 18:47 42.237264 -122.877988 355 6740ft 116kts
22-Jun-18 18:48 42.268455 -122.886039 325 5215ft 112kts
22-Jun-18 18:49 42.292355 -122.911813 309 3471ft 108kts
22-Jun-18 18:50 42.312669 -122.930805 334 3022ft 85kts
22-Jun-18 18:51 42.337733 -122.934871 0 2877ft 89kts
22-Jun-18 18:52 42.361057 -122.933423 352 2769ft 81kts
22-Jun-18 18:53 42.373500 -122.912241 93 2238ft 89kts
22-Jun-18 18:54 42.356013 -122.895962 158 2172ft 81kts
22-Jun-18 18:55 42.352231 -122.870146 76 1766ft 74kts
22-Jun-18 18:56 42.365422 -122.868217 337 1338ft 38kts
22-Jun-18 18:57 42.368543 -122.871170 246 1338ft 3kts
22-Jun-18 18:58 42.370539 -122.873091 295 1338ft 5kts
22-Jun-18 18:59 42.372063 -122.876942 201 1338ft 7kts
22-Jun-18 19:00 42.371995 -122.877794 291 1338ft 0kts
22-Jun-18 19:01 42.371996 -122.877797 291 1338ft 0kts
22-Jun-18 19:02 42.371996 -122.877797 291 1338ft 0kts
22-Jun-18 19:03 42.371996 -122.877797 291 1338ft 0kts

Navigation Log

Ident Type
Flight plan parsing failed, navigation log unavailable